sensor_id;sensor_type;location;lat;lon;timestamp;P1;durP1;ratioP1;P2;durP2;ratioP2
15952;SDS011;8075;47.766;8.846;2023-12-28T00:00:29;9.73;;;8.68;;
15952;SDS011;8075;47.766;8.846;2023-12-28T00:02:56;9.68;;;8.68;;
15952;SDS011;8075;47.766;8.846;2023-12-28T00:05:21;10.43;;;9.07;;
15952;SDS011;8075;47.766;8.846;2023-12-28T00:07:47;9.80;;;8.88;;
15952;SDS011;8075;47.766;8.846;2023-12-28T00:10:14;9.27;;;8.35;;
15952;SDS011;8075;47.766;8.846;2023-12-28T00:12:40;10.05;;;9.10;;
15952;SDS011;8075;47.766;8.846;2023-12-28T00:15:06;9.52;;;8.63;;
15952;SDS011;8075;47.766;8.846;2023-12-28T00:17:32;9.00;;;8.10;;
15952;SDS011;8075;47.766;8.846;2023-12-28T00:19:58;9.40;;;8.45;;
15952;SDS011;8075;47.766;8.846;2023-12-28T00:22:24;10.30;;;8.60;;
15952;SDS011;8075;47.766;8.846;2023-12-28T00:24:50;10.90;;;9.80;;
15952;SDS011;8075;47.766;8.846;2023-12-28T00:27:16;10.65;;;9.55;;
15952;SDS011;8075;47.766;8.846;2023-12-28T00:29:42;10.45;;;9.45;;
15952;SDS011;8075;47.766;8.846;2023-12-28T00:32:08;10.90;;;9.80;;
15952;SDS011;8075;47.766;8.846;2023-12-28T00:34:34;9.80;;;8.80;;
15952;SDS011;8075;47.766;8.846;2023-12-28T00:37:01;9.65;;;8.75;;
15952;SDS011;8075;47.766;8.846;2023-12-28T00:39:27;11.23;;;8.65;;
15952;SDS011;8075;47.766;8.846;2023-12-28T00:41:53;9.67;;;8.63;;
15952;SDS011;8075;47.766;8.846;2023-12-28T00:44:19;9.40;;;8.35;;
15952;SDS011;8075;47.766;8.846;2023-12-28T00:46:45;9.18;;;8.27;;
15952;SDS011;8075;47.766;8.846;2023-12-28T00:49:11;10.07;;;8.60;;
15952;SDS011;8075;47.766;8.846;2023-12-28T00:51:37;9.45;;;8.55;;
15952;SDS011;8075;47.766;8.846;2023-12-28T00:54:03;9.20;;;8.20;;
15952;SDS011;8075;47.766;8.846;2023-12-28T00:56:29;9.00;;;8.15;;
15952;SDS011;8075;47.766;8.846;2023-12-28T00:58:55;9.73;;;8.68;;
15952;SDS011;8075;47.766;8.846;2023-12-28T01:01:21;9.23;;;8.30;;
15952;SDS011;8075;47.766;8.846;2023-12-28T01:03:47;10.50;;;8.55;;
15952;SDS011;8075;47.766;8.846;2023-12-28T01:06:13;9.07;;;8.27;;
15952;SDS011;8075;47.766;8.846;2023-12-28T01:08:39;9.80;;;8.80;;
15952;SDS011;8075;47.766;8.846;2023-12-28T01:11:05;9.55;;;8.55;;
15952;SDS011;8075;47.766;8.846;2023-12-28T01:13:31;9.23;;;8.40;;
15952;SDS011;8075;47.766;8.846;2023-12-28T01:15:57;9.90;;;8.90;;
15952;SDS011;8075;47.766;8.846;2023-12-28T01:18:23;9.48;;;8.57;;
15952;SDS011;8075;47.766;8.846;2023-12-28T01:20:49;9.45;;;8.55;;
15952;SDS011;8075;47.766;8.846;2023-12-28T01:23:15;9.57;;;8.57;;
15952;SDS011;8075;47.766;8.846;2023-12-28T01:25:41;9.00;;;8.20;;
15952;SDS011;8075;47.766;8.846;2023-12-28T01:28:07;9.00;;;8.10;;
15952;SDS011;8075;47.766;8.846;2023-12-28T01:30:33;9.17;;;8.30;;
15952;SDS011;8075;47.766;8.846;2023-12-28T01:32:59;9.13;;;8.13;;
15952;SDS011;8075;47.766;8.846;2023-12-28T01:35:25;9.40;;;8.50;;
15952;SDS011;8075;47.766;8.846;2023-12-28T01:37:51;9.38;;;8.48;;
15952;SDS011;8075;47.766;8.846;2023-12-28T01:40:17;9.40;;;8.50;;
15952;SDS011;8075;47.766;8.846;2023-12-28T01:42:43;9.23;;;8.32;;
15952;SDS011;8075;47.766;8.846;2023-12-28T01:45:10;9.30;;;8.35;;
15952;SDS011;8075;47.766;8.846;2023-12-28T01:47:36;8.63;;;7.72;;
15952;SDS011;8075;47.766;8.846;2023-12-28T01:50:03;9.20;;;8.35;;
15952;SDS011;8075;47.766;8.846;2023-12-28T01:52:30;8.25;;;7.43;;
15952;SDS011;8075;47.766;8.846;2023-12-28T01:54:56;8.87;;;8.07;;
15952;SDS011;8075;47.766;8.846;2023-12-28T01:57:22;9.45;;;8.25;;
15952;SDS011;8075;47.766;8.846;2023-12-28T01:59:49;9.07;;;8.20;;
15952;SDS011;8075;47.766;8.846;2023-12-28T02:02:15;9.65;;;8.75;;
15952;SDS011;8075;47.766;8.846;2023-12-28T02:04:41;9.43;;;8.40;;
15952;SDS011;8075;47.766;8.846;2023-12-28T02:07:07;9.45;;;8.48;;
15952;SDS011;8075;47.766;8.846;2023-12-28T02:09:33;9.07;;;8.25;;
15952;SDS011;8075;47.766;8.846;2023-12-28T02:11:59;9.87;;;8.13;;
15952;SDS011;8075;47.766;8.846;2023-12-28T02:14:25;8.60;;;7.80;;
15952;SDS011;8075;47.766;8.846;2023-12-28T02:17:35;9.68;;;8.68;;
15952;SDS011;8075;47.766;8.846;2023-12-28T02:19:45;8.95;;;8.15;;
15952;SDS011;8075;47.766;8.846;2023-12-28T02:22:13;9.32;;;8.38;;
15952;SDS011;8075;47.766;8.846;2023-12-28T02:27:25;8.57;;;7.70;;
15952;SDS011;8075;47.766;8.846;2023-12-28T02:29:51;9.18;;;8.10;;
15952;SDS011;8075;47.766;8.846;2023-12-28T02:32:17;9.03;;;8.17;;
15952;SDS011;8075;47.766;8.846;2023-12-28T02:34:48;9.07;;;8.13;;
15952;SDS011;8075;47.766;8.846;2023-12-28T02:37:17;9.13;;;8.32;;
15952;SDS011;8075;47.766;8.846;2023-12-28T02:39:44;8.52;;;7.72;;
15952;SDS011;8075;47.766;8.846;2023-12-28T02:42:11;8.60;;;7.78;;
15952;SDS011;8075;47.766;8.846;2023-12-28T02:44:37;8.80;;;7.90;;
15952;SDS011;8075;47.766;8.846;2023-12-28T02:47:06;8.90;;;8.00;;
15952;SDS011;8075;47.766;8.846;2023-12-28T02:49:32;8.30;;;7.50;;
15952;SDS011;8075;47.766;8.846;2023-12-28T02:51:58;9.35;;;8.45;;
15952;SDS011;8075;47.766;8.846;2023-12-28T02:54:24;13.68;;;11.05;;
15952;SDS011;8075;47.766;8.846;2023-12-28T02:56:50;10.05;;;9.02;;
15952;SDS011;8075;47.766;8.846;2023-12-28T02:59:16;9.05;;;8.15;;
15952;SDS011;8075;47.766;8.846;2023-12-28T03:01:42;10.40;;;9.32;;
15952;SDS011;8075;47.766;8.846;2023-12-28T03:04:08;9.23;;;8.32;;
15952;SDS011;8075;47.766;8.846;2023-12-28T03:06:34;8.85;;;8.05;;
15952;SDS011;8075;47.766;8.846;2023-12-28T03:09:00;8.93;;;8.10;;
15952;SDS011;8075;47.766;8.846;2023-12-28T03:11:26;8.20;;;7.40;;
15952;SDS011;8075;47.766;8.846;2023-12-28T03:13:52;8.95;;;7.93;;
15952;SDS011;8075;47.766;8.846;2023-12-28T03:16:18;9.10;;;8.20;;
15952;SDS011;8075;47.766;8.846;2023-12-28T03:18:44;8.77;;;7.85;;
15952;SDS011;8075;47.766;8.846;2023-12-28T03:21:10;9.07;;;8.20;;
15952;SDS011;8075;47.766;8.846;2023-12-28T03:23:36;8.67;;;7.87;;
15952;SDS011;8075;47.766;8.846;2023-12-28T03:26:02;8.70;;;7.90;;
15952;SDS011;8075;47.766;8.846;2023-12-28T03:28:28;8.82;;;7.93;;
15952;SDS011;8075;47.766;8.846;2023-12-28T03:31:03;9.00;;;8.20;;
15952;SDS011;8075;47.766;8.846;2023-12-28T03:33:32;9.55;;;8.55;;
15952;SDS011;8075;47.766;8.846;2023-12-28T03:35:58;9.23;;;8.20;;
15952;SDS011;8075;47.766;8.846;2023-12-28T03:38:24;9.80;;;8.80;;
15952;SDS011;8075;47.766;8.846;2023-12-28T03:40:50;8.70;;;7.90;;
15952;SDS011;8075;47.766;8.846;2023-12-28T03:43:16;8.93;;;8.02;;
15952;SDS011;8075;47.766;8.846;2023-12-28T03:45:45;9.25;;;8.35;;
15952;SDS011;8075;47.766;8.846;2023-12-28T03:48:11;9.70;;;8.70;;
15952;SDS011;8075;47.766;8.846;2023-12-28T03:50:37;10.63;;;8.77;;
15952;SDS011;8075;47.766;8.846;2023-12-28T03:53:03;8.57;;;7.88;;
15952;SDS011;8075;47.766;8.846;2023-12-28T03:55:29;8.57;;;7.78;;
15952;SDS011;8075;47.766;8.846;2023-12-28T03:57:55;8.07;;;7.38;;
15952;SDS011;8075;47.766;8.846;2023-12-28T04:00:21;8.57;;;7.78;;
15952;SDS011;8075;47.766;8.846;2023-12-28T04:02:48;8.88;;;7.72;;
15952;SDS011;8075;47.766;8.846;2023-12-28T04:05:14;8.43;;;7.63;;
15952;SDS011;8075;47.766;8.846;2023-12-28T04:07:40;8.15;;;7.35;;
15952;SDS011;8075;47.766;8.846;2023-12-28T04:10:06;8.13;;;7.25;;
15952;SDS011;8075;47.766;8.846;2023-12-28T04:12:32;8.23;;;7.47;;
15952;SDS011;8075;47.766;8.846;2023-12-28T04:14:58;8.55;;;7.75;;
15952;SDS011;8075;47.766;8.846;2023-12-28T04:17:24;8.05;;;7.25;;
15952;SDS011;8075;47.766;8.846;2023-12-28T04:19:50;8.13;;;7.32;;
15952;SDS011;8075;47.766;8.846;2023-12-28T04:22:16;8.52;;;7.72;;
15952;SDS011;8075;47.766;8.846;2023-12-28T04:24:42;8.27;;;7.50;;
15952;SDS011;8075;47.766;8.846;2023-12-28T04:27:08;8.27;;;7.38;;
15952;SDS011;8075;47.766;8.846;2023-12-28T04:29:35;8.50;;;7.53;;
15952;SDS011;8075;47.766;8.846;2023-12-28T04:32:01;7.88;;;7.18;;
15952;SDS011;8075;47.766;8.846;2023-12-28T04:34:27;8.85;;;8.00;;
15952;SDS011;8075;47.766;8.846;2023-12-28T04:36:53;8.52;;;7.72;;
15952;SDS011;8075;47.766;8.846;2023-12-28T04:39:19;7.95;;;7.25;;
15952;SDS011;8075;47.766;8.846;2023-12-28T04:41:45;8.82;;;7.93;;
15952;SDS011;8075;47.766;8.846;2023-12-28T04:44:11;8.93;;;8.02;;
15952;SDS011;8075;47.766;8.846;2023-12-28T04:46:39;8.40;;;7.53;;
15952;SDS011;8075;47.766;8.846;2023-12-28T04:49:07;9.55;;;8.55;;
15952;SDS011;8075;47.766;8.846;2023-12-28T04:51:33;8.82;;;8.05;;
15952;SDS011;8075;47.766;8.846;2023-12-28T04:53:59;8.82;;;7.20;;
15952;SDS011;8075;47.766;8.846;2023-12-28T04:56:25;9.00;;;8.13;;
15952;SDS011;8075;47.766;8.846;2023-12-28T04:58:51;9.00;;;8.10;;
15952;SDS011;8075;47.766;8.846;2023-12-28T05:01:17;8.48;;;7.57;;
15952;SDS011;8075;47.766;8.846;2023-12-28T05:03:43;8.63;;;7.72;;
15952;SDS011;8075;47.766;8.846;2023-12-28T05:06:09;9.25;;;8.35;;
15952;SDS011;8075;47.766;8.846;2023-12-28T05:08:35;9.07;;;8.27;;
15952;SDS011;8075;47.766;8.846;2023-12-28T05:11:01;9.00;;;7.90;;
15952;SDS011;8075;47.766;8.846;2023-12-28T05:13:27;8.43;;;7.63;;
15952;SDS011;8075;47.766;8.846;2023-12-28T05:15:53;7.88;;;7.18;;
15952;SDS011;8075;47.766;8.846;2023-12-28T05:18:19;8.50;;;7.72;;
15952;SDS011;8075;47.766;8.846;2023-12-28T05:20:45;7.65;;;6.95;;
15952;SDS011;8075;47.766;8.846;2023-12-28T05:23:11;9.25;;;8.35;;
15952;SDS011;8075;47.766;8.846;2023-12-28T05:25:37;8.73;;;7.45;;
15952;SDS011;8075;47.766;8.846;2023-12-28T05:28:03;8.15;;;7.45;;
15952;SDS011;8075;47.766;8.846;2023-12-28T05:30:29;7.78;;;7.07;;
15952;SDS011;8075;47.766;8.846;2023-12-28T05:32:55;8.43;;;7.60;;
15952;SDS011;8075;47.766;8.846;2023-12-28T05:35:21;11.03;;;8.60;;
15952;SDS011;8075;47.766;8.846;2023-12-28T05:37:47;8.65;;;7.85;;
15952;SDS011;8075;47.766;8.846;2023-12-28T05:40:13;10.52;;;8.50;;
15952;SDS011;8075;47.766;8.846;2023-12-28T05:42:39;8.27;;;7.47;;
15952;SDS011;8075;47.766;8.846;2023-12-28T05:45:05;8.27;;;7.45;;
15952;SDS011;8075;47.766;8.846;2023-12-28T05:47:31;9.52;;;8.32;;
15952;SDS011;8075;47.766;8.846;2023-12-28T05:49:57;9.52;;;8.55;;
15952;SDS011;8075;47.766;8.846;2023-12-28T05:52:23;9.95;;;8.95;;
15952;SDS011;8075;47.766;8.846;2023-12-28T05:54:49;9.80;;;8.88;;
15952;SDS011;8075;47.766;8.846;2023-12-28T05:57:15;11.02;;;9.30;;
15952;SDS011;8075;47.766;8.846;2023-12-28T05:59:42;9.88;;;8.98;;
15952;SDS011;8075;47.766;8.846;2023-12-28T06:02:08;10.00;;;9.00;;
15952;SDS011;8075;47.766;8.846;2023-12-28T06:04:34;9.05;;;8.32;;
15952;SDS011;8075;47.766;8.846;2023-12-28T06:07:01;9.40;;;8.50;;
15952;SDS011;8075;47.766;8.846;2023-12-28T06:09:27;9.77;;;8.88;;
15952;SDS011;8075;47.766;8.846;2023-12-28T06:11:53;9.02;;;8.20;;
15952;SDS011;8075;47.766;8.846;2023-12-28T06:14:20;8.60;;;7.80;;
15952;SDS011;8075;47.766;8.846;2023-12-28T06:16:45;8.25;;;7.45;;
15952;SDS011;8075;47.766;8.846;2023-12-28T06:19:11;8.27;;;7.57;;
15952;SDS011;8075;47.766;8.846;2023-12-28T06:21:38;9.13;;;8.32;;
15952;SDS011;8075;47.766;8.846;2023-12-28T06:24:04;9.23;;;8.43;;
15952;SDS011;8075;47.766;8.846;2023-12-28T06:26:30;8.82;;;8.05;;
15952;SDS011;8075;47.766;8.846;2023-12-28T06:28:56;9.15;;;8.25;;
15952;SDS011;8075;47.766;8.846;2023-12-28T06:31:22;9.40;;;8.60;;
15952;SDS011;8075;47.766;8.846;2023-12-28T06:33:48;9.40;;;8.50;;
15952;SDS011;8075;47.766;8.846;2023-12-28T06:36:14;9.70;;;8.70;;
15952;SDS011;8075;47.766;8.846;2023-12-28T06:38:40;9.20;;;8.35;;
15952;SDS011;8075;47.766;8.846;2023-12-28T06:41:12;17.50;;;15.50;;
15952;SDS011;8075;47.766;8.846;2023-12-28T06:43:38;10.85;;;9.75;;
15952;SDS011;8075;47.766;8.846;2023-12-28T06:46:04;9.82;;;8.93;;
15952;SDS011;8075;47.766;8.846;2023-12-28T06:48:30;8.27;;;7.50;;
15952;SDS011;8075;47.766;8.846;2023-12-28T06:50:56;10.15;;;9.13;;
15952;SDS011;8075;47.766;8.846;2023-12-28T06:53:22;9.30;;;8.50;;
15952;SDS011;8075;47.766;8.846;2023-12-28T06:55:48;9.10;;;8.30;;
15952;SDS011;8075;47.766;8.846;2023-12-28T06:58:14;8.95;;;8.15;;
15952;SDS011;8075;47.766;8.846;2023-12-28T07:00:40;8.27;;;7.57;;
15952;SDS011;8075;47.766;8.846;2023-12-28T07:03:08;8.82;;;8.02;;
15952;SDS011;8075;47.766;8.846;2023-12-28T07:05:34;9.15;;;8.35;;
15952;SDS011;8075;47.766;8.846;2023-12-28T07:08:00;9.27;;;8.10;;
15952;SDS011;8075;47.766;8.846;2023-12-28T07:10:26;8.50;;;7.70;;
15952;SDS011;8075;47.766;8.846;2023-12-28T07:12:52;9.00;;;8.20;;
15952;SDS011;8075;47.766;8.846;2023-12-28T07:15:18;9.32;;;8.45;;
15952;SDS011;8075;47.766;8.846;2023-12-28T07:17:44;8.88;;;8.07;;
15952;SDS011;8075;47.766;8.846;2023-12-28T07:20:11;9.18;;;8.35;;
15952;SDS011;8075;47.766;8.846;2023-12-28T07:22:37;9.13;;;8.25;;
15952;SDS011;8075;47.766;8.846;2023-12-28T07:25:06;9.82;;;9.00;;
15952;SDS011;8075;47.766;8.846;2023-12-28T07:27:32;8.90;;;8.20;;
15952;SDS011;8075;47.766;8.846;2023-12-28T07:29:59;9.55;;;8.65;;
15952;SDS011;8075;47.766;8.846;2023-12-28T07:32:25;9.85;;;9.05;;
15952;SDS011;8075;47.766;8.846;2023-12-28T07:34:54;9.65;;;8.75;;
15952;SDS011;8075;47.766;8.846;2023-12-28T07:37:20;10.00;;;9.20;;
15952;SDS011;8075;47.766;8.846;2023-12-28T07:39:46;9.88;;;8.98;;
15952;SDS011;8075;47.766;8.846;2023-12-28T07:42:12;9.75;;;8.82;;
15952;SDS011;8075;47.766;8.846;2023-12-28T07:44:38;10.30;;;9.30;;
15952;SDS011;8075;47.766;8.846;2023-12-28T07:47:05;10.63;;;9.63;;
15952;SDS011;8075;47.766;8.846;2023-12-28T07:49:31;9.98;;;9.05;;
15952;SDS011;8075;47.766;8.846;2023-12-28T07:51:57;10.75;;;9.82;;
15952;SDS011;8075;47.766;8.846;2023-12-28T07:54:23;9.93;;;9.13;;
15952;SDS011;8075;47.766;8.846;2023-12-28T07:56:49;10.93;;;10.00;;
15952;SDS011;8075;47.766;8.846;2023-12-28T07:59:15;10.67;;;9.67;;
15952;SDS011;8075;47.766;8.846;2023-12-28T08:01:41;10.98;;;9.88;;
15952;SDS011;8075;47.766;8.846;2023-12-28T08:04:07;9.95;;;9.13;;
15952;SDS011;8075;47.766;8.846;2023-12-28T08:06:33;10.57;;;9.65;;
15952;SDS011;8075;47.766;8.846;2023-12-28T08:08:59;10.65;;;9.65;;
15952;SDS011;8075;47.766;8.846;2023-12-28T08:11:28;10.07;;;9.18;;
15952;SDS011;8075;47.766;8.846;2023-12-28T08:13:54;9.88;;;8.98;;
15952;SDS011;8075;47.766;8.846;2023-12-28T08:16:20;9.40;;;8.60;;
15952;SDS011;8075;47.766;8.846;2023-12-28T08:18:46;9.30;;;8.50;;
15952;SDS011;8075;47.766;8.846;2023-12-28T08:21:12;11.18;;;10.13;;
15952;SDS011;8075;47.766;8.846;2023-12-28T08:23:38;11.13;;;10.13;;
15952;SDS011;8075;47.766;8.846;2023-12-28T08:26:04;10.25;;;9.35;;
15952;SDS011;8075;47.766;8.846;2023-12-28T08:28:32;11.50;;;10.40;;
15952;SDS011;8075;47.766;8.846;2023-12-28T08:30:58;10.63;;;9.73;;
15952;SDS011;8075;47.766;8.846;2023-12-28T08:33:24;10.27;;;9.27;;
15952;SDS011;8075;47.766;8.846;2023-12-28T08:35:50;10.18;;;9.27;;
15952;SDS011;8075;47.766;8.846;2023-12-28T08:38:16;9.57;;;8.77;;
15952;SDS011;8075;47.766;8.846;2023-12-28T08:40:42;10.15;;;9.25;;
15952;SDS011;8075;47.766;8.846;2023-12-28T08:43:09;10.65;;;9.13;;
15952;SDS011;8075;47.766;8.846;2023-12-28T08:45:35;10.18;;;9.27;;
15952;SDS011;8075;47.766;8.846;2023-12-28T08:48:01;9.50;;;8.60;;
15952;SDS011;8075;47.766;8.846;2023-12-28T08:50:27;8.60;;;7.80;;
15952;SDS011;8075;47.766;8.846;2023-12-28T08:52:54;8.68;;;7.88;;
15952;SDS011;8075;47.766;8.846;2023-12-28T08:55:20;8.35;;;7.65;;
15952;SDS011;8075;47.766;8.846;2023-12-28T08:57:46;8.40;;;7.70;;
15952;SDS011;8075;47.766;8.846;2023-12-28T09:00:13;7.80;;;7.20;;
15952;SDS011;8075;47.766;8.846;2023-12-28T09:02:42;8.23;;;7.53;;
15952;SDS011;8075;47.766;8.846;2023-12-28T09:05:09;8.63;;;7.88;;
15952;SDS011;8075;47.766;8.846;2023-12-28T09:07:35;13.43;;;12.33;;
15952;SDS011;8075;47.766;8.846;2023-12-28T09:10:07;11.52;;;10.43;;
15952;SDS011;8075;47.766;8.846;2023-12-28T09:12:33;12.87;;;11.73;;
15952;SDS011;8075;47.766;8.846;2023-12-28T09:14:59;10.90;;;10.00;;
15952;SDS011;8075;47.766;8.846;2023-12-28T09:17:25;11.68;;;10.57;;
15952;SDS011;8075;47.766;8.846;2023-12-28T09:19:51;11.73;;;10.83;;
15952;SDS011;8075;47.766;8.846;2023-12-28T09:22:17;12.20;;;11.07;;
15952;SDS011;8075;47.766;8.846;2023-12-28T09:24:43;11.70;;;10.65;;
15952;SDS011;8075;47.766;8.846;2023-12-28T09:27:09;15.30;;;13.23;;
15952;SDS011;8075;47.766;8.846;2023-12-28T09:29:35;12.48;;;11.18;;
15952;SDS011;8075;47.766;8.846;2023-12-28T09:32:02;14.82;;;12.40;;
15952;SDS011;8075;47.766;8.846;2023-12-28T09:34:27;17.95;;;14.82;;
15952;SDS011;8075;47.766;8.846;2023-12-28T09:36:54;12.43;;;11.23;;
15952;SDS011;8075;47.766;8.846;2023-12-28T09:39:20;11.73;;;10.63;;
15952;SDS011;8075;47.766;8.846;2023-12-28T09:41:48;15.27;;;13.77;;
15952;SDS011;8075;47.766;8.846;2023-12-28T09:44:15;13.27;;;11.98;;
15952;SDS011;8075;47.766;8.846;2023-12-28T09:46:41;13.60;;;12.20;;
15952;SDS011;8075;47.766;8.846;2023-12-28T09:49:08;12.18;;;11.02;;
15952;SDS011;8075;47.766;8.846;2023-12-28T09:51:34;11.90;;;10.70;;
15952;SDS011;8075;47.766;8.846;2023-12-28T09:54:00;12.65;;;11.35;;
15952;SDS011;8075;47.766;8.846;2023-12-28T09:56:26;13.25;;;11.82;;
15952;SDS011;8075;47.766;8.846;2023-12-28T09:58:53;11.57;;;10.50;;
15952;SDS011;8075;47.766;8.846;2023-12-28T10:01:19;12.20;;;10.98;;
15952;SDS011;8075;47.766;8.846;2023-12-28T10:03:45;11.38;;;10.25;;
15952;SDS011;8075;47.766;8.846;2023-12-28T10:06:11;11.07;;;9.97;;
15952;SDS011;8075;47.766;8.846;2023-12-28T10:08:44;11.03;;;9.93;;
15952;SDS011;8075;47.766;8.846;2023-12-28T10:11:11;12.05;;;9.57;;
15952;SDS011;8075;47.766;8.846;2023-12-28T10:13:37;11.30;;;10.20;;
15952;SDS011;8075;47.766;8.846;2023-12-28T10:16:03;12.10;;;10.20;;
15952;SDS011;8075;47.766;8.846;2023-12-28T10:18:30;13.10;;;11.85;;
15952;SDS011;8075;47.766;8.846;2023-12-28T10:20:56;13.35;;;12.05;;
15952;SDS011;8075;47.766;8.846;2023-12-28T10:23:22;13.48;;;12.07;;
15952;SDS011;8075;47.766;8.846;2023-12-28T10:25:50;12.35;;;11.15;;
15952;SDS011;8075;47.766;8.846;2023-12-28T10:28:18;13.50;;;12.18;;
15952;SDS011;8075;47.766;8.846;2023-12-28T10:30:45;11.90;;;10.80;;
15952;SDS011;8075;47.766;8.846;2023-12-28T10:33:11;11.55;;;10.00;;
15952;SDS011;8075;47.766;8.846;2023-12-28T10:35:37;11.83;;;10.63;;
15952;SDS011;8075;47.766;8.846;2023-12-28T10:38:03;10.98;;;9.90;;
15952;SDS011;8075;47.766;8.846;2023-12-28T10:40:30;11.35;;;10.25;;
15952;SDS011;8075;47.766;8.846;2023-12-28T10:42:57;11.10;;;10.00;;
15952;SDS011;8075;47.766;8.846;2023-12-28T10:45:28;22.83;;;10.63;;
15952;SDS011;8075;47.766;8.846;2023-12-28T10:48:07;15.55;;;10.82;;
15952;SDS011;8075;47.766;8.846;2023-12-28T10:50:40;11.40;;;10.30;;
15952;SDS011;8075;47.766;8.846;2023-12-28T10:53:12;12.10;;;10.80;;
15952;SDS011;8075;47.766;8.846;2023-12-28T10:55:44;14.23;;;12.83;;
15952;SDS011;8075;47.766;8.846;2023-12-28T10:58:17;15.32;;;13.93;;
15952;SDS011;8075;47.766;8.846;2023-12-28T11:00:47;14.85;;;13.45;;
15952;SDS011;8075;47.766;8.846;2023-12-28T11:03:16;14.05;;;12.70;;
15952;SDS011;8075;47.766;8.846;2023-12-28T11:05:44;14.25;;;12.85;;
15952;SDS011;8075;47.766;8.846;2023-12-28T11:08:11;13.20;;;11.90;;
15952;SDS011;8075;47.766;8.846;2023-12-28T11:10:37;15.73;;;14.02;;
15952;SDS011;8075;47.766;8.846;2023-12-28T11:13:04;14.48;;;12.98;;
15952;SDS011;8075;47.766;8.846;2023-12-28T11:15:30;15.43;;;13.65;;
15952;SDS011;8075;47.766;8.846;2023-12-28T11:17:57;14.05;;;12.63;;
15952;SDS011;8075;47.766;8.846;2023-12-28T11:20:24;13.63;;;12.27;;
15952;SDS011;8075;47.766;8.846;2023-12-28T11:22:50;14.55;;;12.90;;
15952;SDS011;8075;47.766;8.846;2023-12-28T11:25:17;15.55;;;13.25;;
15952;SDS011;8075;47.766;8.846;2023-12-28T11:27:43;16.75;;;14.45;;
15952;SDS011;8075;47.766;8.846;2023-12-28T11:30:11;16.13;;;14.15;;
15952;SDS011;8075;47.766;8.846;2023-12-28T11:32:38;16.05;;;14.32;;
15952;SDS011;8075;47.766;8.846;2023-12-28T11:35:06;14.80;;;13.30;;
15952;SDS011;8075;47.766;8.846;2023-12-28T11:37:35;14.40;;;13.00;;
15952;SDS011;8075;47.766;8.846;2023-12-28T11:40:13;14.13;;;12.63;;
15952;SDS011;8075;47.766;8.846;2023-12-28T11:42:50;14.07;;;12.77;;
15952;SDS011;8075;47.766;8.846;2023-12-28T11:45:17;14.55;;;13.13;;
15952;SDS011;8075;47.766;8.846;2023-12-28T11:47:43;25.80;;;18.25;;
15952;SDS011;8075;47.766;8.846;2023-12-28T11:50:09;21.45;;;16.33;;
15952;SDS011;8075;47.766;8.846;2023-12-28T11:52:35;19.88;;;16.67;;
15952;SDS011;8075;47.766;8.846;2023-12-28T11:55:02;16.63;;;14.73;;
15952;SDS011;8075;47.766;8.846;2023-12-28T11:57:29;16.77;;;15.07;;
15952;SDS011;8075;47.766;8.846;2023-12-28T11:59:56;17.83;;;15.57;;
15952;SDS011;8075;47.766;8.846;2023-12-28T12:02:22;25.88;;;19.30;;
15952;SDS011;8075;47.766;8.846;2023-12-28T12:04:49;15.93;;;14.32;;
15952;SDS011;8075;47.766;8.846;2023-12-28T12:07:15;14.87;;;13.33;;
15952;SDS011;8075;47.766;8.846;2023-12-28T12:09:41;18.58;;;15.50;;
15952;SDS011;8075;47.766;8.846;2023-12-28T12:12:07;17.83;;;14.80;;
15952;SDS011;8075;47.766;8.846;2023-12-28T12:14:34;17.70;;;15.50;;
15952;SDS011;8075;47.766;8.846;2023-12-28T12:17:00;17.95;;;15.68;;
15952;SDS011;8075;47.766;8.846;2023-12-28T12:19:26;20.83;;;17.92;;
15952;SDS011;8075;47.766;8.846;2023-12-28T12:21:53;15.98;;;14.35;;
15952;SDS011;8075;47.766;8.846;2023-12-28T12:24:19;18.85;;;15.35;;
15952;SDS011;8075;47.766;8.846;2023-12-28T12:26:46;16.75;;;15.05;;
15952;SDS011;8075;47.766;8.846;2023-12-28T12:29:12;16.70;;;14.90;;
15952;SDS011;8075;47.766;8.846;2023-12-28T12:31:39;14.23;;;12.83;;
15952;SDS011;8075;47.766;8.846;2023-12-28T12:34:07;15.05;;;13.55;;
15952;SDS011;8075;47.766;8.846;2023-12-28T12:36:33;14.00;;;12.70;;
15952;SDS011;8075;47.766;8.846;2023-12-28T12:38:59;12.07;;;10.93;;
15952;SDS011;8075;47.766;8.846;2023-12-28T12:41:25;12.40;;;11.30;;
15952;SDS011;8075;47.766;8.846;2023-12-28T12:43:52;11.93;;;10.65;;
15952;SDS011;8075;47.766;8.846;2023-12-28T12:46:20;13.15;;;11.90;;
15952;SDS011;8075;47.766;8.846;2023-12-28T12:48:59;13.15;;;11.90;;
15952;SDS011;8075;47.766;8.846;2023-12-28T12:51:27;12.63;;;11.43;;
15952;SDS011;8075;47.766;8.846;2023-12-28T12:53:59;13.40;;;12.10;;
15952;SDS011;8075;47.766;8.846;2023-12-28T12:56:25;13.52;;;11.88;;
15952;SDS011;8075;47.766;8.846;2023-12-28T12:58:52;13.07;;;11.77;;
15952;SDS011;8075;47.766;8.846;2023-12-28T13:01:18;13.23;;;11.82;;
15952;SDS011;8075;47.766;8.846;2023-12-28T13:03:47;14.43;;;12.95;;
15952;SDS011;8075;47.766;8.846;2023-12-28T13:06:13;15.87;;;13.83;;
15952;SDS011;8075;47.766;8.846;2023-12-28T13:08:39;16.90;;;15.20;;
15952;SDS011;8075;47.766;8.846;2023-12-28T13:11:05;16.85;;;14.57;;
15952;SDS011;8075;47.766;8.846;2023-12-28T13:13:34;15.20;;;13.80;;
15952;SDS011;8075;47.766;8.846;2023-12-28T13:16:01;16.05;;;14.43;;
15952;SDS011;8075;47.766;8.846;2023-12-28T13:18:27;15.35;;;13.82;;
15952;SDS011;8075;47.766;8.846;2023-12-28T13:20:53;15.03;;;13.60;;
15952;SDS011;8075;47.766;8.846;2023-12-28T13:23:19;16.65;;;15.05;;
15952;SDS011;8075;47.766;8.846;2023-12-28T13:25:45;17.20;;;14.93;;
15952;SDS011;8075;47.766;8.846;2023-12-28T13:28:11;17.92;;;15.60;;
15952;SDS011;8075;47.766;8.846;2023-12-28T13:30:38;15.30;;;13.80;;
15952;SDS011;8075;47.766;8.846;2023-12-28T13:33:04;15.23;;;13.65;;
15952;SDS011;8075;47.766;8.846;2023-12-28T13:35:31;13.95;;;12.10;;
15952;SDS011;8075;47.766;8.846;2023-12-28T13:37:59;13.67;;;12.40;;
15952;SDS011;8075;47.766;8.846;2023-12-28T13:40:28;14.45;;;13.05;;
15952;SDS011;8075;47.766;8.846;2023-12-28T13:42:57;13.02;;;11.70;;
15952;SDS011;8075;47.766;8.846;2023-12-28T13:45:23;13.18;;;12.05;;
15952;SDS011;8075;47.766;8.846;2023-12-28T13:47:49;14.43;;;13.13;;
15952;SDS011;8075;47.766;8.846;2023-12-28T13:50:15;14.17;;;12.77;;
15952;SDS011;8075;47.766;8.846;2023-12-28T13:52:41;14.68;;;13.13;;
15952;SDS011;8075;47.766;8.846;2023-12-28T13:55:07;14.43;;;13.02;;
15952;SDS011;8075;47.766;8.846;2023-12-28T13:57:33;13.07;;;11.88;;
15952;SDS011;8075;47.766;8.846;2023-12-28T13:59:59;13.38;;;11.98;;
15952;SDS011;8075;47.766;8.846;2023-12-28T14:02:28;12.95;;;11.77;;
15952;SDS011;8075;47.766;8.846;2023-12-28T14:04:54;13.40;;;12.10;;
15952;SDS011;8075;47.766;8.846;2023-12-28T14:07:24;13.43;;;12.05;;
15952;SDS011;8075;47.766;8.846;2023-12-28T14:09:50;27.13;;;21.40;;
15952;SDS011;8075;47.766;8.846;2023-12-28T14:12:17;19.35;;;16.67;;
15952;SDS011;8075;47.766;8.846;2023-12-28T14:14:43;12.17;;;11.07;;
15952;SDS011;8075;47.766;8.846;2023-12-28T14:17:09;11.45;;;10.48;;
15952;SDS011;8075;47.766;8.846;2023-12-28T14:19:35;11.50;;;10.40;;
15952;SDS011;8075;47.766;8.846;2023-12-28T14:22:01;12.80;;;11.48;;
15952;SDS011;8075;47.766;8.846;2023-12-28T14:24:27;11.98;;;10.82;;
15952;SDS011;8075;47.766;8.846;2023-12-28T14:26:53;11.23;;;10.23;;
15952;SDS011;8075;47.766;8.846;2023-12-28T14:29:20;10.90;;;9.90;;
15952;SDS011;8075;47.766;8.846;2023-12-28T14:31:46;10.73;;;9.73;;
15952;SDS011;8075;47.766;8.846;2023-12-28T14:34:13;11.63;;;10.43;;
15952;SDS011;8075;47.766;8.846;2023-12-28T14:36:39;11.03;;;9.93;;
15952;SDS011;8075;47.766;8.846;2023-12-28T14:39:08;11.00;;;10.00;;
15952;SDS011;8075;47.766;8.846;2023-12-28T14:41:35;10.98;;;9.95;;
15952;SDS011;8075;47.766;8.846;2023-12-28T14:44:01;11.15;;;10.05;;
15952;SDS011;8075;47.766;8.846;2023-12-28T14:46:27;12.00;;;10.88;;
15952;SDS011;8075;47.766;8.846;2023-12-28T14:48:54;11.30;;;10.25;;